Terminal Aerodrome Forecast
Issued by NWS

Home | Current Version | Previous Version | Text Only | Print | Product List | Glossary On
Versions: 1 2 3 4 5 6 7 8 9 10 11 12 13 14 15 16
000
FTUS43 KIWX 050759 AAA
TAFSBN
TAF AMD
KSBN 050759Z 0508/0606 01013KT 6SM BR OVC007
      TEMPO 0509/0511 4SM -SHRA OVC005
     FM051200 01014KT P6SM OVC010
     FM051500 35014G22KT P6SM SCT020
     FM060100 32003KT P6SM SKC=

USA.gov is the U.S. government's official web portal to all federal, state and local government web resources and services.